Oasis, Idaho
Current Conditions -  °F | °C
As of 1:03 PM on Thursday 18 Dec 2014 (Local Time) from KMUO Reporting Station
Broken Clouds Broken Clouds  
Wind Chill: 38°   Ceiling: 7500
Heat Index: 45°   Visibility: 10mi
Dew Point: 30°   Wind: 14mph
Humidity: 57%   Direction: 100°E
Pressure: 30.1"   Gusts: NA
Location:  43.2609°N, 115.781°W
Report Text: KMUO 182003Z AUTO 10012KT 10SM BKN075 BKN130 07/M01 A3010 RMK AO2
Loading
Personal Weather Stations






























Interactive Weather Map New forecast layout! Learn more

10-Day Weather Forecast

Advertisements
Track Severe Weather on mobile